createdAt,value
2022-11-06T00:22:35.708Z,6.30
2022-11-06T00:25:53.037Z,5.57
2022-11-06T00:28:20.538Z,6.30
2022-11-06T00:30:48.033Z,6.18
2022-11-06T00:33:15.642Z,5.32
2022-11-06T00:35:43.077Z,5.57
2022-11-06T00:38:10.919Z,5.55
2022-11-06T00:40:38.706Z,5.30
2022-11-06T00:43:06.225Z,5.22
2022-11-06T00:45:33.699Z,5.43
2022-11-06T00:48:01.223Z,5.45
2022-11-06T00:50:28.732Z,5.10
2022-11-06T00:52:56.299Z,5.35
2022-11-06T00:55:26.107Z,5.70
2022-11-06T00:57:53.558Z,5.10
2022-11-06T01:00:22.302Z,4.97
2022-11-06T01:02:50.116Z,4.80
2022-11-06T01:05:17.979Z,4.70
2022-11-06T01:07:45.417Z,4.43
2022-11-06T01:10:13.008Z,4.43
2022-11-06T01:12:40.445Z,4.90
2022-11-06T01:15:08.241Z,4.22
2022-11-06T01:17:35.872Z,4.47
2022-11-06T01:20:05.090Z,4.88
2022-11-06T01:22:33.572Z,4.30
2022-11-06T01:25:01.224Z,4.18
2022-11-06T01:27:28.813Z,4.28
2022-11-06T01:29:56.903Z,3.78
2022-11-06T01:32:24.334Z,3.70
2022-11-06T01:34:51.802Z,3.85
2022-11-06T01:37:19.364Z,4.05
2022-11-06T01:39:48.526Z,4.13
2022-11-06T01:42:18.728Z,4.13
2022-11-06T01:45:07.757Z,4.15
2022-11-06T01:47:35.123Z,4.03
2022-11-06T01:50:08.915Z,4.43
2022-11-06T01:52:37.058Z,4.40
2022-11-06T01:55:13.279Z,4.15
2022-11-06T01:57:41.016Z,3.70
2022-11-06T02:00:09.271Z,3.92
2022-11-06T02:02:38.330Z,3.80
2022-11-06T02:05:06.565Z,3.88
2022-11-06T02:07:34.416Z,3.80
2022-11-06T02:10:02.182Z,3.78
2022-11-06T02:12:39.474Z,4.00
2022-11-06T02:15:13.166Z,4.22
2022-11-06T02:18:00.033Z,3.75
2022-11-06T02:20:42.490Z,3.90
2022-11-06T02:23:50.862Z,3.60
2022-11-06T02:26:51.041Z,3.60
2022-11-06T02:29:22.788Z,3.15
2022-11-06T02:31:54.865Z,3.08
2022-11-06T02:34:26.162Z,2.90
2022-11-06T02:37:01.470Z,3.17
2022-11-06T02:39:34.322Z,3.00
2022-11-06T02:42:05.284Z,2.75
2022-11-06T02:44:36.538Z,2.72
2022-11-06T02:47:10.514Z,2.80
2022-11-06T02:49:40.623Z,2.63
2022-11-06T02:52:25.374Z,2.58
2022-11-06T02:55:02.806Z,2.42
2022-11-06T02:57:36.281Z,2.33
2022-11-06T03:00:15.029Z,2.67
2022-11-06T03:02:50.013Z,2.58
2022-11-06T03:05:25.097Z,2.38
2022-11-06T03:08:00.384Z,2.03
2022-11-06T03:10:33.675Z,2.45
2022-11-06T03:13:14.682Z,1.95
2022-11-06T03:15:53.217Z,2.00
2022-11-06T03:19:05.133Z,2.35
2022-11-06T03:21:38.958Z,2.22
2022-11-06T03:24:31.087Z,2.25
2022-11-06T03:27:02.477Z,2.00
2022-11-06T03:29:40.224Z,1.92
2022-11-06T03:32:15.102Z,2.00
2022-11-06T03:34:51.561Z,2.40
2022-11-06T03:37:36.142Z,2.33
2022-11-06T03:40:09.524Z,2.30
2022-11-06T03:42:40.490Z,2.30
2022-11-06T03:45:12.074Z,2.60
2022-11-06T03:47:46.699Z,2.67
2022-11-06T03:50:20.974Z,2.30
2022-11-06T03:52:55.517Z,2.40
2022-11-06T03:55:28.469Z,2.58
2022-11-06T03:57:59.724Z,2.72
2022-11-06T04:00:27.109Z,2.80
2022-11-06T04:03:04.990Z,2.60
2022-11-06T04:05:38.306Z,2.30
2022-11-06T04:08:26.635Z,2.00
2022-11-06T04:11:18.063Z,1.98
2022-11-06T04:14:03.004Z,1.80
2022-11-06T04:16:36.397Z,2.22
2022-11-06T04:19:06.097Z,2.25
2022-11-06T04:21:36.446Z,2.03
2022-11-06T04:24:35.786Z,2.40
2022-11-06T04:27:39.126Z,2.40
2022-11-06T04:30:06.838Z,2.40
2022-11-06T04:33:01.922Z,2.10
2022-11-06T04:35:40.549Z,2.28
2022-11-06T04:38:36.374Z,2.30
2022-11-06T04:41:12.763Z,2.00
2022-11-06T04:43:51.975Z,2.40
2022-11-06T04:46:25.621Z,2.10
2022-11-06T04:48:54.358Z,2.28
2022-11-06T04:51:27.311Z,1.98
2022-11-06T04:53:55.574Z,2.13
2022-11-06T04:56:29.474Z,2.42
2022-11-06T04:58:58.081Z,1.92
2022-11-06T05:01:26.108Z,2.20
2022-11-06T05:03:53.600Z,1.83
2022-11-06T05:06:23.538Z,2.13
2022-11-06T05:08:55.460Z,2.00
2022-11-06T05:11:22.928Z,2.20
2022-11-06T05:13:50.661Z,2.30
2022-11-06T05:16:18.253Z,2.08
2022-11-06T05:18:45.761Z,2.03
2022-11-06T05:21:31.384Z,2.00
2022-11-06T05:23:58.829Z,2.00
2022-11-06T05:26:26.420Z,1.80
2022-11-06T05:28:53.811Z,2.22
2022-11-06T05:31:21.359Z,1.90
2022-11-06T05:33:48.900Z,1.92
2022-11-06T05:36:16.632Z,2.15
2022-11-06T05:38:44.223Z,2.10
2022-11-06T05:41:11.615Z,2.22
2022-11-06T05:43:39.262Z,2.00
2022-11-06T05:46:14.963Z,2.70
2022-11-06T05:48:51.480Z,2.35
2022-11-06T05:51:20.027Z,2.20
2022-11-06T05:53:47.576Z,2.22
2022-11-06T05:56:15.315Z,2.72
2022-11-06T05:58:44.871Z,2.58
2022-11-06T06:01:13.356Z,2.53
2022-11-06T06:03:41.132Z,2.97
2022-11-06T06:06:08.626Z,2.72
2022-11-06T06:08:36.222Z,2.70
2022-11-06T06:11:07.506Z,2.17
2022-11-06T06:13:37.902Z,2.60
2022-11-06T06:16:06.444Z,2.92
2022-11-06T06:18:34.233Z,2.88
2022-11-06T06:21:01.744Z,2.90
2022-11-06T06:23:29.193Z,3.05
2022-11-06T06:25:57.533Z,3.08
2022-11-06T06:28:25.189Z,3.30
2022-11-06T06:30:57.189Z,2.85
2022-11-06T06:33:27.652Z,3.30
2022-11-06T06:35:55.181Z,3.17
2022-11-06T06:38:22.929Z,3.15
2022-11-06T06:40:50.348Z,3.50
2022-11-06T06:43:17.810Z,3.20
2022-11-06T06:45:45.285Z,3.50
2022-11-06T06:48:13.077Z,3.22
2022-11-06T06:50:41.085Z,3.60
2022-11-06T06:53:08.529Z,3.47
2022-11-06T06:55:36.045Z,3.58
2022-11-06T06:58:03.526Z,3.47
2022-11-06T07:00:31.123Z,3.95
2022-11-06T07:02:58.562Z,3.83
2022-11-06T07:05:28.535Z,3.45
2022-11-06T07:07:56.928Z,3.80
2022-11-06T07:10:24.430Z,3.58
2022-11-06T07:13:01.399Z,3.47
2022-11-06T07:15:29.650Z,4.40
2022-11-06T07:18:03.125Z,4.47
2022-11-06T07:20:30.910Z,4.57
2022-11-06T07:22:58.584Z,3.75
2022-11-06T07:25:28.702Z,4.07
2022-11-06T07:28:02.819Z,4.57
2022-11-06T07:30:31.087Z,3.33
2022-11-06T07:33:02.787Z,3.05
2022-11-06T07:35:31.323Z,3.00
2022-11-06T07:38:01.780Z,2.78
2022-11-06T07:40:29.886Z,2.50
2022-11-06T07:43:06.428Z,2.70
2022-11-06T07:45:34.738Z,2.80
2022-11-06T07:48:02.519Z,2.70
2022-11-06T07:50:30.203Z,2.80
2022-11-06T07:52:58.333Z,2.58
2022-11-06T07:55:26.271Z,2.60
2022-11-06T07:57:53.769Z,2.97
2022-11-06T08:00:21.525Z,2.58
2022-11-06T08:02:53.279Z,2.80
2022-11-06T08:05:21.363Z,2.50
2022-11-06T08:07:48.979Z,2.90
2022-11-06T08:10:16.764Z,2.60
2022-11-06T08:12:44.297Z,2.80
2022-11-06T08:15:12.067Z,2.55
2022-11-06T08:17:39.545Z,2.70
2022-11-06T08:20:08.087Z,2.63
2022-11-06T08:22:35.836Z,2.72
2022-11-06T08:25:03.549Z,2.58
2022-11-06T08:27:31.014Z,2.88
2022-11-06T08:29:58.887Z,2.72
2022-11-06T08:32:28.436Z,2.58
2022-11-06T08:34:55.972Z,2.72
2022-11-06T08:37:26.066Z,2.55
2022-11-06T08:39:53.552Z,2.45
2022-11-06T08:42:21.247Z,2.60
2022-11-06T08:44:48.744Z,2.50
2022-11-06T08:47:16.347Z,2.22
2022-11-06T08:49:43.823Z,2.40
2022-11-06T08:52:11.434Z,1.92
2022-11-06T08:54:38.967Z,2.03
2022-11-06T08:57:06.475Z,2.50
2022-11-06T08:59:34.091Z,2.20
2022-11-06T09:02:02.369Z,2.10
2022-11-06T09:04:30.465Z,2.42
2022-11-06T09:06:58.864Z,1.90
2022-11-06T09:09:32.129Z,1.92
2022-11-06T09:12:00.776Z,1.80
2022-11-06T09:14:28.240Z,1.90
2022-11-06T09:16:55.841Z,2.50
2022-11-06T09:19:25.874Z,2.10
2022-11-06T09:21:56.365Z,2.10
2022-11-06T09:24:37.520Z,1.83
2022-11-06T09:27:11.641Z,2.30
2022-11-06T09:29:40.986Z,2.08
2022-11-06T09:32:08.522Z,1.80
2022-11-06T09:34:36.107Z,2.25
2022-11-06T09:37:03.736Z,2.00
2022-11-06T09:39:31.353Z,1.90
2022-11-06T09:42:04.846Z,1.85
2022-11-06T09:44:46.380Z,1.73
2022-11-06T09:47:19.019Z,1.90
2022-11-06T09:49:52.500Z,1.67
2022-11-06T09:52:42.872Z,2.13
2022-11-06T09:55:22.393Z,2.20
2022-11-06T09:58:04.072Z,2.22
2022-11-06T10:00:31.863Z,2.38
2022-11-06T10:03:30.607Z,2.20
2022-11-06T10:05:58.191Z,2.78
2022-11-06T10:08:30.751Z,2.63
2022-11-06T10:10:58.221Z,2.70
2022-11-06T10:14:06.544Z,3.15
2022-11-06T10:16:42.708Z,3.05
2022-11-06T10:19:20.459Z,3.08
2022-11-06T10:22:08.293Z,3.10
2022-11-06T10:25:06.375Z,2.90
2022-11-06T10:27:43.400Z,2.80
2022-11-06T10:30:18.621Z,2.40
2022-11-06T10:33:17.905Z,2.67
2022-11-06T10:35:59.560Z,2.80
2022-11-06T10:38:36.630Z,2.72
2022-11-06T10:45:16.958Z,3.10
2022-11-06T10:47:55.640Z,2.92
2022-11-06T10:50:28.289Z,2.63
2022-11-06T10:53:05.995Z,3.15
2022-11-06T10:55:42.337Z,3.13
2022-11-06T10:58:14.493Z,2.67
2022-11-06T11:00:42.815Z,1.92
2022-11-06T11:08:30.473Z,2.65
2022-11-06T11:11:06.850Z,2.95
2022-11-06T11:13:34.806Z,2.97
2022-11-06T11:16:03.316Z,2.85
2022-11-06T11:18:32.251Z,2.38
2022-11-06T11:21:13.580Z,2.47
2022-11-06T11:23:41.323Z,2.70
2022-11-06T11:26:32.883Z,2.78
2022-11-06T11:29:12.243Z,2.42
2022-11-06T11:31:40.025Z,2.17
2022-11-06T11:34:19.215Z,2.70
2022-11-06T11:37:04.040Z,2.10
2022-11-06T11:39:34.899Z,2.30
2022-11-06T11:42:26.363Z,2.33
2022-11-06T11:45:08.747Z,2.50
2022-11-06T11:47:38.081Z,2.20
2022-11-06T11:50:29.828Z,2.17
2022-11-06T11:53:07.133Z,2.22
2022-11-06T11:55:44.929Z,2.47
2022-11-06T11:58:28.127Z,2.17
2022-11-06T12:01:07.903Z,2.60
2022-11-06T12:03:53.343Z,2.45
2022-11-06T12:06:23.729Z,2.30
2022-11-06T12:08:58.991Z,2.28
2022-11-06T12:11:30.733Z,2.30
2022-11-06T12:14:53.314Z,2.60
2022-11-06T12:17:24.732Z,2.50
2022-11-06T12:19:57.822Z,2.28
2022-11-06T12:22:31.478Z,2.10
2022-11-06T12:25:08.970Z,2.30
2022-11-06T12:27:44.260Z,2.10
2022-11-06T12:33:04.385Z,1.80
2022-11-06T12:35:38.345Z,1.92
2022-11-06T12:38:30.300Z,2.20
2022-11-06T12:41:01.996Z,2.10
2022-11-06T12:43:32.113Z,2.05
2022-11-06T12:46:22.306Z,2.10
2022-11-06T12:49:17.481Z,2.00
2022-11-06T12:52:18.766Z,2.55
2022-11-06T12:55:04.409Z,2.35
2022-11-06T12:58:11.160Z,2.35
2022-11-06T13:00:48.807Z,2.42
2022-11-06T13:03:42.345Z,2.20
2022-11-06T13:06:24.166Z,1.95
2022-11-06T13:09:09.054Z,2.00
2022-11-06T13:11:42.475Z,2.40
2022-11-06T13:14:32.335Z,2.60
2022-11-06T13:17:35.458Z,2.10
2022-11-06T13:20:15.270Z,2.08
2022-11-06T13:22:49.852Z,2.25
2022-11-06T13:25:27.005Z,2.42
2022-11-06T13:28:08.550Z,2.20
2022-11-06T13:30:38.405Z,2.22
2022-11-06T13:33:15.734Z,2.40
2022-11-06T13:35:46.467Z,2.20
2022-11-06T13:38:21.222Z,2.80
2022-11-06T13:40:54.009Z,2.53
2022-11-06T13:43:38.725Z,2.50
2022-11-06T13:46:11.339Z,2.58
2022-11-06T13:48:41.783Z,2.50
2022-11-06T13:51:33.549Z,2.60
2022-11-06T13:54:30.603Z,2.70
2022-11-06T13:57:12.138Z,2.67
2022-11-06T13:59:42.254Z,2.72
2022-11-06T14:02:35.793Z,2.83
2022-11-06T14:05:18.155Z,3.38
2022-11-06T14:07:47.482Z,3.20
2022-11-06T14:10:24.072Z,3.40
2022-11-06T14:12:52.178Z,3.63
2022-11-06T14:15:19.434Z,3.35
2022-11-06T14:17:58.698Z,3.75
2022-11-06T14:20:34.851Z,3.60
2022-11-06T14:23:31.179Z,3.95
2022-11-06T14:26:04.761Z,3.42
2022-11-06T14:28:35.201Z,3.83
2022-11-06T14:31:12.478Z,3.90
2022-11-06T14:33:42.111Z,3.83
2022-11-06T14:36:26.054Z,3.80
2022-11-06T14:38:54.641Z,3.80
2022-11-06T14:41:48.183Z,3.90
2022-11-06T14:44:24.687Z,3.90
2022-11-06T14:47:00.357Z,4.20
2022-11-06T14:49:46.709Z,4.32
2022-11-06T14:52:16.297Z,4.07
2022-11-06T14:55:03.470Z,4.45
2022-11-06T14:57:38.302Z,5.32
2022-11-06T15:00:07.311Z,4.90
2022-11-06T15:02:37.490Z,5.32
2022-11-06T15:05:15.814Z,5.35
2022-11-06T15:08:04.527Z,5.18
2022-11-06T15:10:42.799Z,5.72
2022-11-06T15:13:23.011Z,5.32
2022-11-06T15:15:56.845Z,5.57
2022-11-06T15:18:25.768Z,6.15
2022-11-06T15:20:59.659Z,6.32
2022-11-06T15:23:50.126Z,6.18
2022-11-06T15:26:26.810Z,6.55
2022-11-06T15:29:00.013Z,6.60
2022-11-06T15:31:33.554Z,7.00
2022-11-06T15:34:13.044Z,6.75
2022-11-06T15:36:47.818Z,6.82
2022-11-06T15:39:41.646Z,7.15
2022-11-06T15:42:16.415Z,7.40
2022-11-06T15:44:46.439Z,7.45
2022-11-06T15:47:24.109Z,7.45
2022-11-06T15:50:06.633Z,8.00
2022-11-06T15:52:34.276Z,7.50
2022-11-06T15:55:01.618Z,8.48
2022-11-06T15:57:30.026Z,8.90
2022-11-06T16:00:19.257Z,8.82
2022-11-06T16:02:53.217Z,8.63
2022-11-06T16:05:24.983Z,8.25
2022-11-06T16:07:52.737Z,8.57
2022-11-06T16:10:23.577Z,9.18
2022-11-06T16:12:53.858Z,8.90
2022-11-06T16:16:01.160Z,8.90
2022-11-06T16:18:45.020Z,8.70
2022-11-06T16:21:24.111Z,8.75
2022-11-06T16:23:55.247Z,9.30
2022-11-06T16:26:25.461Z,9.30
2022-11-06T16:28:56.455Z,8.50
2022-11-06T16:31:28.159Z,8.80
2022-11-06T16:33:58.409Z,9.93
2022-11-06T16:36:28.245Z,9.60
2022-11-06T16:39:18.436Z,9.88
2022-11-06T16:41:57.787Z,9.70
2022-11-06T16:44:31.805Z,9.95
2022-11-06T16:47:05.255Z,9.93
2022-11-06T16:49:42.602Z,10.95
2022-11-06T16:52:29.675Z,12.52
2022-11-06T16:54:57.146Z,13.02
2022-11-06T16:57:31.303Z,13.15
2022-11-06T17:00:05.392Z,11.75
2022-11-06T17:02:36.607Z,12.13
2022-11-06T17:05:18.222Z,12.05
2022-11-06T17:07:46.101Z,12.50
2022-11-06T17:10:35.880Z,12.18
2022-11-06T17:13:22.963Z,12.57
2022-11-06T17:15:57.198Z,14.30
2022-11-06T17:18:30.277Z,12.63
2022-11-06T17:21:00.598Z,12.43
2022-11-06T17:23:29.748Z,13.77
2022-11-06T17:26:02.219Z,14.25
2022-11-06T17:28:31.007Z,13.43
2022-11-06T17:30:59.003Z,13.13
2022-11-06T17:33:29.708Z,12.70
2022-11-06T17:35:57.203Z,12.52
2022-11-06T17:38:24.601Z,11.98
2022-11-06T17:40:52.056Z,12.60
2022-11-06T17:43:20.490Z,12.05
2022-11-06T17:45:50.044Z,11.68
2022-11-06T17:48:18.105Z,12.45
2022-11-06T17:51:04.017Z,11.48
2022-11-06T17:53:41.047Z,11.90
2022-11-06T17:56:08.850Z,11.88
2022-11-06T17:58:36.583Z,11.07
2022-11-06T18:01:09.065Z,10.52
2022-11-06T18:03:44.476Z,11.23
2022-11-06T18:08:43.994Z,10.02
2022-11-06T18:11:13.958Z,10.07
2022-11-06T18:13:41.706Z,9.77
2022-11-06T18:16:18.921Z,9.65
2022-11-06T18:18:46.723Z,8.32
2022-11-06T18:21:14.524Z,8.40
2022-11-06T18:23:42.696Z,8.55
2022-11-06T18:26:10.268Z,8.43
2022-11-06T18:28:37.753Z,8.85
2022-11-06T18:31:11.159Z,8.40
2022-11-06T18:33:38.819Z,8.35
2022-11-06T18:36:08.521Z,7.75
2022-11-06T18:38:36.960Z,8.05
2022-11-06T18:41:13.070Z,8.00
2022-11-06T18:43:40.838Z,7.70
2022-11-06T18:46:17.658Z,7.45
2022-11-06T18:48:45.139Z,7.65
2022-11-06T18:51:32.639Z,7.32
2022-11-06T18:54:05.868Z,6.95
2022-11-06T18:56:35.976Z,6.95
2022-11-06T18:59:06.336Z,6.88
2022-11-06T19:01:35.332Z,7.00
2022-11-06T19:04:04.269Z,6.63
2022-11-06T19:06:32.602Z,6.53
2022-11-06T19:09:00.311Z,6.40
2022-11-06T19:11:27.750Z,6.65
2022-11-06T19:13:55.168Z,7.00
2022-11-06T19:16:22.785Z,6.55
2022-11-06T19:24:05.198Z,6.85
2022-11-06T19:26:34.667Z,7.00
2022-11-06T19:29:03.349Z,8.07
2022-11-06T19:31:32.280Z,8.20
2022-11-06T19:34:00.233Z,7.68
2022-11-06T19:36:28.927Z,8.82
2022-11-06T19:38:59.967Z,8.65
2022-11-06T19:41:28.469Z,8.60
2022-11-06T19:43:55.932Z,9.02
2022-11-06T19:46:27.304Z,8.70
2022-11-06T19:48:58.434Z,8.75
2022-11-06T19:51:26.029Z,8.55
2022-11-06T19:53:54.132Z,8.40
2022-11-06T19:56:22.138Z,8.32
2022-11-06T19:58:50.783Z,8.98
2022-11-06T20:01:19.395Z,8.50
2022-11-06T20:03:47.611Z,8.82
2022-11-06T20:06:15.409Z,8.95
2022-11-06T20:08:43.038Z,8.57
2022-11-06T20:11:14.004Z,8.48
2022-11-06T20:13:43.926Z,9.13
2022-11-06T20:16:14.891Z,8.90
2022-11-06T20:18:42.749Z,8.38
2022-11-06T20:21:12.420Z,8.18
2022-11-06T20:23:40.162Z,9.30
2022-11-06T20:26:08.267Z,8.18
2022-11-06T20:28:36.088Z,8.18
2022-11-06T20:31:11.789Z,9.18
2022-11-06T20:33:40.540Z,8.32
2022-11-06T20:36:13.313Z,7.97
2022-11-06T20:38:41.826Z,7.65
2022-11-06T20:41:10.133Z,7.43
2022-11-06T20:43:37.859Z,7.70
2022-11-06T20:46:06.198Z,7.85
2022-11-06T20:48:37.015Z,7.90
2022-11-06T20:51:10.515Z,7.68
2022-11-06T20:53:39.677Z,8.90
2022-11-06T20:56:15.169Z,8.60
2022-11-06T20:58:44.717Z,8.55
2022-11-06T21:01:20.402Z,8.60
2022-11-06T21:03:50.851Z,8.45
2022-11-06T21:06:21.495Z,8.02
2022-11-06T21:08:49.154Z,8.20
2022-11-06T21:11:19.507Z,8.70
2022-11-06T21:13:49.014Z,7.78
2022-11-06T21:16:22.913Z,8.55
2022-11-06T21:18:51.479Z,8.65
2022-11-06T21:21:22.222Z,8.02
2022-11-06T21:23:50.787Z,8.20
2022-11-06T21:26:21.746Z,8.63
2022-11-06T21:28:50.018Z,7.07
2022-11-06T21:31:20.697Z,7.50
2022-11-06T21:33:50.529Z,7.97
2022-11-06T21:36:25.364Z,7.70
2022-11-06T21:38:54.393Z,7.63
2022-11-06T21:41:25.448Z,7.13
2022-11-06T21:43:53.377Z,7.35
2022-11-06T21:46:22.044Z,7.60
2022-11-06T21:48:50.261Z,7.22
2022-11-06T21:51:18.055Z,7.78
2022-11-06T21:54:05.743Z,7.75
2022-11-06T21:56:34.045Z,7.43
2022-11-06T21:59:04.244Z,8.05
2022-11-06T22:01:32.413Z,7.72
2022-11-06T22:04:00.329Z,7.65
2022-11-06T22:06:29.283Z,7.97
2022-11-06T22:08:59.761Z,7.85
2022-11-06T22:11:30.625Z,8.07
2022-11-06T22:14:00.847Z,8.43
2022-11-06T22:16:32.253Z,8.10
2022-11-06T22:18:59.779Z,7.90
2022-11-06T22:21:29.232Z,8.25
2022-11-06T22:23:57.538Z,7.80
2022-11-06T22:26:29.114Z,7.78
2022-11-06T22:29:07.154Z,7.30
2022-11-06T22:31:35.295Z,7.10
2022-11-06T22:34:03.855Z,7.47
2022-11-06T22:36:32.097Z,7.82
2022-11-06T22:39:04.426Z,7.82
2022-11-06T22:41:31.905Z,7.80
2022-11-06T22:43:59.882Z,7.55
2022-11-06T22:46:33.336Z,7.50
2022-11-06T22:54:00.758Z,7.50
2022-11-06T22:56:31.053Z,7.35
2022-11-06T22:59:02.017Z,7.35
2022-11-06T23:02:00.781Z,7.40
2022-11-06T23:04:37.769Z,7.25
2022-11-06T23:07:05.436Z,6.82
2022-11-06T23:09:32.978Z,6.60
2022-11-06T23:12:00.634Z,6.53
2022-11-06T23:14:28.645Z,6.75
2022-11-06T23:17:00.857Z,6.05
2022-11-06T23:19:30.970Z,6.53
2022-11-06T23:22:17.438Z,6.50
2022-11-06T23:24:45.728Z,5.95
2022-11-06T23:27:13.302Z,6.25
2022-11-06T23:29:40.781Z,6.25
2022-11-06T23:32:10.870Z,6.05
2022-11-06T23:34:38.392Z,6.10
2022-11-06T23:37:06.001Z,6.30
2022-11-06T23:39:33.471Z,5.82
2022-11-06T23:42:03.541Z,6.32
2022-11-06T23:44:49.726Z,6.40
2022-11-06T23:47:17.319Z,6.25
2022-11-06T23:49:44.872Z,5.90
2022-11-06T23:52:12.563Z,6.10
2022-11-06T23:54:40.096Z,6.03
2022-11-06T23:57:08.654Z,6.00
2022-11-06T23:59:36.519Z,5.88
